Loire Princesse — FM6242 — position and weather

sailwx.info

Track history (hours):
 
Tides and Currents Weather Stations Pressure Air Temp Water Temp Dewpoint Dewpoint Depression Visibility Wind Speed Wind Dir Waves Ship Positions

Loire Princesse

Last reported at 2017-Sep-22 02:01 UTC. Time now 2017-Sep-22 08:30 UTC.
Position N 47°12' W 001°34'.

Length 90 m; draft 0.7 m.

Type: Ship. MMSI: 226010880.

Date/timePositionNaut miles runAvg speedWind from/ knotsBaromVisibWave heightAir tempDewpointWater temp
2017-Sep-22 02:01N 47°12' W 001°34'0 0.0
2017-Sep-22 01:31N 47°12' W 001°34'0 0.0
2017-Sep-22 01:00N 47°12' W 001°34'0 0.0
2017-Sep-22 00:30N 47°12' W 001°34'0 0.0
2017-Sep-22 00:00N 47°12' W 001°34'0 0.0
2017-Sep-21 23:31N 47°12' W 001°34'0 0.0
2017-Sep-21 23:01N 47°12' W 001°34'0 0.0
2017-Sep-21 22:30N 47°12' W 001°34'0 0.0
2017-Sep-21 22:01N 47°12' W 001°34'0 0.0
2017-Sep-21 21:30N 47°12' W 001°34'0 0.0
2017-Sep-21 21:00N 47°12' W 001°34'1 2.9
2017-Sep-21 20:30N 47°13' W 001°32'3 5.4
2017-Sep-21 20:01N 47°14' W 001°28'3 5.7
2017-Sep-21 19:30N 47°16' W 001°25'2 4.8
2017-Sep-21 19:00N 47°18' W 001°23'  
2017-Sep-18 13:29N 47°17' W 001°23'2 4.5
2017-Sep-18 13:00N 47°15' W 001°26'5 4.7
2017-Sep-18 11:59N 47°13' W 001°32'2 3.4
2017-Sep-18 11:30N 47°12' W 001°34'0 0.0
2017-Sep-18 11:00N 47°12' W 001°34'0 0.0
2017-Sep-18 10:30N 47°12' W 001°34'0 0.0
2017-Sep-18 10:01N 47°12' W 001°34'0 0.0
2017-Sep-18 09:30N 47°12' W 001°34'0 0.0
2017-Sep-18 09:00N 47°12' W 001°34'0 0.0
2017-Sep-18 08:30N 47°12' W 001°34'0 0.0
2017-Sep-18 08:00N 47°12' W 001°34'0 0.0
2017-Sep-18 07:31N 47°12' W 001°34'0 0.0
2017-Sep-18 07:01N 47°12' W 001°34'0 0.0
2017-Sep-18 06:30N 47°12' W 001°34'0 0.0
2017-Sep-18 06:00N 47°12' W 001°34'0 0.0
2017-Sep-18 05:30N 47°12' W 001°34'0 0.0
2017-Sep-18 05:00N 47°12' W 001°34'0 0.0
2017-Sep-18 04:30N 47°12' W 001°34'0 0.0
2017-Sep-18 04:00N 47°12' W 001°34'0 0.0
2017-Sep-18 03:30N 47°12' W 001°34'0 0.0
2017-Sep-18 03:00N 47°12' W 001°34'0 0.0
2017-Sep-18 02:31N 47°12' W 001°34'0 0.0
2017-Sep-18 02:01N 47°12' W 001°34'0 0.0
2017-Sep-18 01:30N 47°12' W 001°34'0 0.0
2017-Sep-18 01:00N 47°12' W 001°34'0 0.0
2017-Sep-18 00:30N 47°12' W 001°34'0 0.0
2017-Sep-18 00:00N 47°12' W 001°34'0 0.0
2017-Sep-17 23:30N 47°12' W 001°34'0 0.0
2017-Sep-17 23:00N 47°12' W 001°34'0 0.0
2017-Sep-17 22:30N 47°12' W 001°34'0 0.0
2017-Sep-17 22:01N 47°12' W 001°34'0 0.0
2017-Sep-17 21:30N 47°12' W 001°34'0 0.0
2017-Sep-17 21:00N 47°12' W 001°34'0 0.0
2017-Sep-17 20:30N 47°12' W 001°34'0 0.0
2017-Sep-17 20:00N 47°12' W 001°34'0 0.0
2017-Sep-17 19:30N 47°12' W 001°34'0 0.0
2017-Sep-17 19:00N 47°12' W 001°34'0 0.0
2017-Sep-17 18:30N 47°12' W 001°34'0 0.0
2017-Sep-17 18:00N 47°12' W 001°34'0 0.0
2017-Sep-17 17:30N 47°12' W 001°34'0 0.0
2017-Sep-17 17:01N 47°12' W 001°34'0 0.0
2017-Sep-17 16:31N 47°12' W 001°34'0 0.0
2017-Sep-17 16:00N 47°12' W 001°34'0 0.0
2017-Sep-17 15:30N 47°12' W 001°34'0 0.0
2017-Sep-17 15:00N 47°12' W 001°34'0 0.0
2017-Sep-17 14:31N 47°12' W 001°34'0 0.0
2017-Sep-17 14:01N 47°12' W 001°34'0 0.0
2017-Sep-17 13:31N 47°12' W 001°34'0 0.0
2017-Sep-17 13:00N 47°12' W 001°34'0 0.0
2017-Sep-17 12:30N 47°12' W 001°34'0 0.0
2017-Sep-17 12:00N 47°12' W 001°34'0 0.0
2017-Sep-17 11:30N 47°12' W 001°34'0 0.0
2017-Sep-17 11:00N 47°12' W 001°34'0 0.0
2017-Sep-17 10:31N 47°12' W 001°34'0 0.0
2017-Sep-17 10:01N 47°12' W 001°34'0 0.0
2017-Sep-17 09:30N 47°12' W 001°34'0 0.0
2017-Sep-17 09:01N 47°12' W 001°34'0 0.0
2017-Sep-17 08:30N 47°12' W 001°34'0 0.0
2017-Sep-17 08:00N 47°12' W 001°34'0 0.0
2017-Sep-17 07:31N 47°12' W 001°34'0 0.0
2017-Sep-17 07:01N 47°12' W 001°34'0 0.0
2017-Sep-17 06:30N 47°12' W 001°34'0 0.0
2017-Sep-17 06:01N 47°12' W 001°34'0 0.0
2017-Sep-17 05:30N 47°12' W 001°34'0 0.0
2017-Sep-17 05:00N 47°12' W 001°34'0 0.0
2017-Sep-17 04:31N 47°12' W 001°34'0 0.0
2017-Sep-17 04:01N 47°12' W 001°34'0 0.0
2017-Sep-17 03:30N 47°12' W 001°34'0 0.0
2017-Sep-17 03:00N 47°12' W 001°34'0 0.0
2017-Sep-17 02:30N 47°12' W 001°34'0 0.0
2017-Sep-17 02:00N 47°12' W 001°34'0 0.0
2017-Sep-17 01:30N 47°12' W 001°34'0 0.0
2017-Sep-17 01:00N 47°12' W 001°34'0 0.0
2017-Sep-17 00:30N 47°12' W 001°34'0 0.0
2017-Sep-17 00:00N 47°12' W 001°34'0 0.0
2017-Sep-16 23:31N 47°12' W 001°34'0 0.0
2017-Sep-16 23:00N 47°12' W 001°34'0 0.0
2017-Sep-16 22:30N 47°12' W 001°34'0 0.0
2017-Sep-16 22:00N 47°12' W 001°34'0 0.0
2017-Sep-16 21:30N 47°12' W 001°34'0 0.0
2017-Sep-16 21:00N 47°12' W 001°34'0 0.0
2017-Sep-16 20:30N 47°12' W 001°34'0 0.0
2017-Sep-16 20:01N 47°12' W 001°34'0 0.0
2017-Sep-16 19:31N 47°12' W 001°34'0 0.0
2017-Sep-16 19:01N 47°12' W 001°34'0 0.0
2017-Sep-16 18:30N 47°12' W 001°34'0 0.0
2017-Sep-16 17:53N 47°12' W 001°34'0 0.2
2017-Sep-16 17:30N 47°13' W 001°34'2 4.6
2017-Sep-16 16:59N 47°13' W 001°31'2 3.7
2017-Sep-16 16:30N 47°12' W 001°33'1 2.0
2017-Sep-16 16:00N 47°12' W 001°34'0 1.0
2017-Sep-16 15:30N 47°12' W 001°34'3 5.1
2017-Sep-16 15:01N 47°12' W 001°38'3 6.8
2017-Sep-16 14:30N 47°12' W 001°43'3 6.9
2017-Sep-16 14:01N 47°13' W 001°48'3 6.7
2017-Sep-16 13:30N 47°15' W 001°51'3 6.6
2017-Sep-16 13:01N 47°17' W 001°55'4 7.3
2017-Sep-16 12:30N 47°18' W 002°01'4 7.6
2017-Sep-16 12:00N 47°18' W 002°06'3 5.9
2017-Sep-16 11:30N 47°17' W 002°10'2 1.8
2017-Sep-16 10:39N 47°16' W 002°12'0 0.6
2017-Sep-16 10:30N 47°16' W 002°12'0 0.0
2017-Sep-16 10:00N 47°16' W 002°12'0 0.0
2017-Sep-16 09:29N 47°16' W 002°12'0 0.0
2017-Sep-16 09:01N 47°16' W 002°12'0 0.0
2017-Sep-16 08:30N 47°16' W 002°12'0 0.0
2017-Sep-16 08:00N 47°16' W 002°12'0 0.0
2017-Sep-16 07:30N 47°16' W 002°12'0 0.0
2017-Sep-16 07:01N 47°16' W 002°12'0 0.0
2017-Sep-16 06:29N 47°16' W 002°12'0 0.0
2017-Sep-16 06:00N 47°16' W 002°12'0 0.0
2017-Sep-16 05:28N 47°16' W 002°12'0 0.0
2017-Sep-16 05:00N 47°16' W 002°12'0 0.0
2017-Sep-16 04:30N 47°16' W 002°12'0 0.0
2017-Sep-16 04:00N 47°16' W 002°12'0 0.0
2017-Sep-16 03:30N 47°16' W 002°12'0 0.0
2017-Sep-16 03:00N 47°16' W 002°12'0 0.0
2017-Sep-16 02:30N 47°16' W 002°12'0 0.0
2017-Sep-16 02:00N 47°16' W 002°12'0 0.0
2017-Sep-16 01:30N 47°16' W 002°12'0 0.0
2017-Sep-16 01:01N 47°16' W 002°12'0 0.0
2017-Sep-16 00:30N 47°16' W 002°12'0 0.0
2017-Sep-16 00:00N 47°16' W 002°12'0 0.0
2017-Sep-15 23:31N 47°16' W 002°12'0 0.0
2017-Sep-15 22:57N 47°16' W 002°12'0 0.0
2017-Sep-15 22:28N 47°16' W 002°12'0 0.2
2017-Sep-15 22:00N 47°16' W 002°12'1 1.4
2017-Sep-15 21:30N 47°17' W 002°11'3 6.8
2017-Sep-15 21:00N 47°18' W 002°07'3 6.4
2017-Sep-15 20:30N 47°18' W 002°02'3 6.5
2017-Sep-15 20:01N 47°17' W 001°57'4 7.3
2017-Sep-15 19:30N 47°16' W 001°52'5 9.0
2017-Sep-15 19:00N 47°13' W 001°48'510.5
2017-Sep-15 18:30N 47°12' W 001°40'4 8.1
2017-Sep-15 17:59N 47°12' W 001°34'0 0.0
2017-Sep-15 17:29N 47°12' W 001°34'0 0.0
2017-Sep-15 17:00N 47°12' W 001°34'0 0.0
2017-Sep-15 16:30N 47°12' W 001°34'0 0.0
2017-Sep-15 16:00N 47°12' W 001°34'0 0.0
2017-Sep-15 15:30N 47°12' W 001°34'0 0.0
2017-Sep-15 14:51N 47°12' W 001°34'0 0.0
2017-Sep-15 14:29N 47°12' W 001°34'0 0.0
2017-Sep-15 14:00N 47°12' W 001°34'0 0.0
2017-Sep-15 13:30N 47°12' W 001°34'0 0.0
2017-Sep-15 13:00N 47°12' W 001°34'0 0.0
2017-Sep-15 12:30N 47°12' W 001°34'0 0.0
2017-Sep-15 12:00N 47°12' W 001°34'0 0.0
2017-Sep-15 11:30N 47°12' W 001°34'0 0.0
2017-Sep-15 11:00N 47°12' W 001°34'0 0.0
2017-Sep-15 10:29N 47°12' W 001°34'0 0.0
2017-Sep-15 10:00N 47°12' W 001°34'0 0.0
2017-Sep-15 09:30N 47°12' W 001°34'0 0.0
2017-Sep-15 09:00N 47°12' W 001°34'0 0.0
2017-Sep-15 08:30N 47°12' W 001°34'0 0.0
2017-Sep-15 08:00N 47°12' W 001°34'0 0.0
2017-Sep-15 07:31N 47°12' W 001°34'0 0.0
2017-Sep-15 07:00N 47°12' W 001°34'0 0.0
2017-Sep-15 06:30N 47°12' W 001°34'0 0.0
2017-Sep-15 05:59N 47°12' W 001°34'0 0.0
2017-Sep-15 05:30N 47°12' W 001°34'0 0.0
2017-Sep-15 05:00N 47°12' W 001°34'0 0.0
2017-Sep-15 04:31N 47°12' W 001°34'0 0.0
2017-Sep-15 04:00N 47°12' W 001°34'0 0.0
2017-Sep-15 03:29N 47°12' W 001°34'0 0.0
2017-Sep-15 03:01N 47°12' W 001°34'0 0.0
2017-Sep-15 02:30N 47°12' W 001°34'0 0.0
2017-Sep-15 02:00N 47°12' W 001°34'0 0.0
2017-Sep-15 01:31N 47°12' W 001°34'0 0.0
2017-Sep-15 01:01N 47°12' W 001°34'0 0.0
2017-Sep-15 00:30N 47°12' W 001°34'0 0.0
2017-Sep-15 00:00N 47°12' W 001°34'0 0.0
2017-Sep-14 23:30N 47°12' W 001°34'0 0.0
2017-Sep-14 23:00N 47°12' W 001°34'0 0.0
2017-Sep-14 22:30N 47°12' W 001°34'0 0.0
2017-Sep-14 22:00N 47°12' W 001°34'0 0.0
2017-Sep-14 21:30N 47°12' W 001°34'0 0.0
2017-Sep-14 21:00N 47°12' W 001°34'0 0.0
2017-Sep-14 20:30N 47°12' W 001°34'0 0.2
2017-Sep-14 20:00N 47°12' W 001°34'3 6.1
2017-Sep-14 19:30N 47°12' W 001°38'1 2.3
2017-Sep-14 19:00N 47°12' W 001°40'2 4.5
2017-Sep-14 18:30N 47°12' W 001°37'2 4.1
2017-Sep-14 18:00N 47°12' W 001°34'0 0.0
2017-Sep-14 17:31N 47°12' W 001°34'0 0.0
2017-Sep-14 17:00N 47°12' W 001°34'0 0.0
2017-Sep-14 16:30N 47°12' W 001°34'0 0.0
2017-Sep-14 16:00N 47°12' W 001°34'1 1.1
2017-Sep-14 15:31N 47°12' W 001°33'3 5.0
2017-Sep-14 15:01N 47°13' W 001°30'8 0.2
2017-Sep-13 07:57N 47°18' W 001°21'2 3.8
2017-Sep-13 07:25N 47°17' W 001°23'2 3.8
2017-Sep-13 07:00N 47°16' W 001°25'2 3.9
2017-Sep-13 06:29N 47°15' W 001°27'2 4.2
2017-Sep-13 05:59N 47°13' W 001°30'2 4.1
2017-Sep-13 05:30N 47°13' W 001°32'1 2.2
2017-Sep-13 05:00N 47°13' W 001°34'0 0.0
2017-Sep-13 04:30N 47°13' W 001°34'0 0.0
2017-Sep-13 04:00N 47°13' W 001°34'0 0.0
2017-Sep-13 03:30N 47°13' W 001°34'0 0.0
2017-Sep-13 03:00N 47°13' W 001°34'0 0.0
2017-Sep-13 02:30N 47°13' W 001°34'0 0.0
2017-Sep-13 02:00N 47°13' W 001°34'0 0.0
2017-Sep-13 01:31N 47°13' W 001°34'0 0.0
2017-Sep-13 01:00N 47°13' W 001°34'0 0.0
2017-Sep-13 00:31N 47°13' W 001°34'0 0.0
2017-Sep-12 23:59N 47°13' W 001°34'0 0.0
2017-Sep-12 23:30N 47°13' W 001°34'0 0.0
2017-Sep-12 23:00N 47°13' W 001°34'0 0.0
2017-Sep-12 22:30N 47°13' W 001°34'0 0.0
2017-Sep-12 22:00N 47°13' W 001°34'0 0.0
2017-Sep-12 21:30N 47°13' W 001°34'0 0.0
2017-Sep-12 21:00N 47°13' W 001°34'0 0.0
2017-Sep-12 20:30N 47°13' W 001°34'0 0.0
2017-Sep-12 20:00N 47°13' W 001°34'0 0.0
2017-Sep-12 19:31N 47°13' W 001°34'0 0.0
2017-Sep-12 19:01N 47°13' W 001°34'0 0.0
2017-Sep-12 18:31N 47°13' W 001°34'0 0.0
2017-Sep-12 18:01N 47°13' W 001°34'0 0.0
2017-Sep-12 17:31N 47°13' W 001°34'0 0.0
2017-Sep-12 16:58N 47°13' W 001°34'0 0.0
2017-Sep-12 16:17N 47°13' W 001°34'0 0.0
2017-Sep-12 16:00N 47°13' W 001°34'0 0.0
2017-Sep-12 15:26N 47°13' W 001°34'0 0.0
2017-Sep-12 14:52N 47°13' W 001°34'0 0.0
2017-Sep-12 14:29N 47°13' W 001°34'0 0.0
2017-Sep-12 13:55N 47°13' W 001°34'0 0.0
2017-Sep-12 12:48N 47°13' W 001°34'0 0.0
2017-Sep-12 12:30N 47°13' W 001°34'2 0.5
2017-Sep-12 09:13N 47°12' W 001°36'2 4.5
2017-Sep-12 08:47N 47°11' W 001°39'1 5.2
2017-Sep-12 08:30N 47°12' W 001°41'3 5.7
2017-Sep-12 08:00N 47°12' W 001°45'3 6.4
2017-Sep-12 07:30N 47°13' W 001°49'4 7.6
2017-Sep-12 07:00N 47°16' W 001°53'4 8.4
2017-Sep-12 06:31N 47°17' W 001°59'2 3.9
2017-Sep-12 06:01N 47°17' W 002°02'0 0.0
2017-Sep-12 05:29N 47°17' W 002°02'0 0.0
2017-Sep-12 05:01N 47°17' W 002°02'0 0.0
2017-Sep-12 04:30N 47°17' W 002°02'0 0.0
2017-Sep-12 04:00N 47°17' W 002°02'0 0.0
2017-Sep-12 03:30N 47°17' W 002°02'0 0.0
2017-Sep-12 03:00N 47°17' W 002°02'0 0.0
2017-Sep-12 02:30N 47°17' W 002°02'  
Track history (hours):
 
Tides and Currents Weather Stations Pressure Air Temp Water Temp Dewpoint Dewpoint Depression Visibility Wind Speed Wind Dir Waves Ship Positions

Loire Princesse

Last reported at 2017-Sep-22 02:01 UTC. Time now 2017-Sep-22 08:30 UTC.
Position N 47°12' W 001°34'.

Length 90 m; draft 0.7 m.

Type: Ship. MMSI: 226010880.

Date/timePositionNaut miles runAvg speedWind from/ knotsBaromVisibWave heightAir tempDewpointWater temp
2017-Sep-22 02:01N 47°12' W 001°34'0 0.0
2017-Sep-22 01:31N 47°12' W 001°34'0 0.0
2017-Sep-22 01:00N 47°12' W 001°34'0 0.0
2017-Sep-22 00:30N 47°12' W 001°34'0 0.0
2017-Sep-22 00:00N 47°12' W 001°34'0 0.0
2017-Sep-21 23:31N 47°12' W 001°34'0 0.0
2017-Sep-21 23:01N 47°12' W 001°34'0 0.0
2017-Sep-21 22:30N 47°12' W 001°34'0 0.0
2017-Sep-21 22:01N 47°12' W 001°34'0 0.0
2017-Sep-21 21:30N 47°12' W 001°34'0 0.0
2017-Sep-21 21:00N 47°12' W 001°34'1 2.9
2017-Sep-21 20:30N 47°13' W 001°32'3 5.4
2017-Sep-21 20:01N 47°14' W 001°28'3 5.7
2017-Sep-21 19:30N 47°16' W 001°25'2 4.8
2017-Sep-21 19:00N 47°18' W 001°23'  
2017-Sep-18 13:29N 47°17' W 001°23'2 4.5
2017-Sep-18 13:00N 47°15' W 001°26'5 4.7
2017-Sep-18 11:59N 47°13' W 001°32'2 3.4
2017-Sep-18 11:30N 47°12' W 001°34'0 0.0
2017-Sep-18 11:00N 47°12' W 001°34'0 0.0
2017-Sep-18 10:30N 47°12' W 001°34'0 0.0
2017-Sep-18 10:01N 47°12' W 001°34'0 0.0
2017-Sep-18 09:30N 47°12' W 001°34'0 0.0
2017-Sep-18 09:00N 47°12' W 001°34'0 0.0
2017-Sep-18 08:30N 47°12' W 001°34'0 0.0
2017-Sep-18 08:00N 47°12' W 001°34'0 0.0
2017-Sep-18 07:31N 47°12' W 001°34'0 0.0
2017-Sep-18 07:01N 47°12' W 001°34'0 0.0
2017-Sep-18 06:30N 47°12' W 001°34'0 0.0
2017-Sep-18 06:00N 47°12' W 001°34'0 0.0
2017-Sep-18 05:30N 47°12' W 001°34'0 0.0
2017-Sep-18 05:00N 47°12' W 001°34'0 0.0
2017-Sep-18 04:30N 47°12' W 001°34'0 0.0
2017-Sep-18 04:00N 47°12' W 001°34'0 0.0
2017-Sep-18 03:30N 47°12' W 001°34'0 0.0
2017-Sep-18 03:00N 47°12' W 001°34'0 0.0
2017-Sep-18 02:31N 47°12' W 001°34'0 0.0
2017-Sep-18 02:01N 47°12' W 001°34'0 0.0
2017-Sep-18 01:30N 47°12' W 001°34'0 0.0
2017-Sep-18 01:00N 47°12' W 001°34'0 0.0
2017-Sep-18 00:30N 47°12' W 001°34'0 0.0
2017-Sep-18 00:00N 47°12' W 001°34'0 0.0
2017-Sep-17 23:30N 47°12' W 001°34'0 0.0
2017-Sep-17 23:00N 47°12' W 001°34'0 0.0
2017-Sep-17 22:30N 47°12' W 001°34'0 0.0
2017-Sep-17 22:01N 47°12' W 001°34'0 0.0
2017-Sep-17 21:30N 47°12' W 001°34'0 0.0
2017-Sep-17 21:00N 47°12' W 001°34'0 0.0
2017-Sep-17 20:30N 47°12' W 001°34'0 0.0
2017-Sep-17 20:00N 47°12' W 001°34'0 0.0
2017-Sep-17 19:30N 47°12' W 001°34'0 0.0
2017-Sep-17 19:00N 47°12' W 001°34'0 0.0
2017-Sep-17 18:30N 47°12' W 001°34'0 0.0
2017-Sep-17 18:00N 47°12' W 001°34'0 0.0
2017-Sep-17 17:30N 47°12' W 001°34'0 0.0
2017-Sep-17 17:01N 47°12' W 001°34'0 0.0
2017-Sep-17 16:31N 47°12' W 001°34'0 0.0
2017-Sep-17 16:00N 47°12' W 001°34'0 0.0
2017-Sep-17 15:30N 47°12' W 001°34'0 0.0
2017-Sep-17 15:00N 47°12' W 001°34'0 0.0
2017-Sep-17 14:31N 47°12' W 001°34'0 0.0
2017-Sep-17 14:01N 47°12' W 001°34'0 0.0
2017-Sep-17 13:31N 47°12' W 001°34'0 0.0
2017-Sep-17 13:00N 47°12' W 001°34'0 0.0
2017-Sep-17 12:30N 47°12' W 001°34'0 0.0
2017-Sep-17 12:00N 47°12' W 001°34'0 0.0
2017-Sep-17 11:30N 47°12' W 001°34'0 0.0
2017-Sep-17 11:00N 47°12' W 001°34'0 0.0
2017-Sep-17 10:31N 47°12' W 001°34'0 0.0
2017-Sep-17 10:01N 47°12' W 001°34'0 0.0
2017-Sep-17 09:30N 47°12' W 001°34'0 0.0
2017-Sep-17 09:01N 47°12' W 001°34'0 0.0
2017-Sep-17 08:30N 47°12' W 001°34'0 0.0
2017-Sep-17 08:00N 47°12' W 001°34'0 0.0
2017-Sep-17 07:31N 47°12' W 001°34'0 0.0
2017-Sep-17 07:01N 47°12' W 001°34'0 0.0
2017-Sep-17 06:30N 47°12' W 001°34'0 0.0
2017-Sep-17 06:01N 47°12' W 001°34'0 0.0
2017-Sep-17 05:30N 47°12' W 001°34'0 0.0
2017-Sep-17 05:00N 47°12' W 001°34'0 0.0
2017-Sep-17 04:31N 47°12' W 001°34'0 0.0
2017-Sep-17 04:01N 47°12' W 001°34'0 0.0
2017-Sep-17 03:30N 47°12' W 001°34'0 0.0
2017-Sep-17 03:00N 47°12' W 001°34'0 0.0
2017-Sep-17 02:30N 47°12' W 001°34'0 0.0
2017-Sep-17 02:00N 47°12' W 001°34'0 0.0
2017-Sep-17 01:30N 47°12' W 001°34'0 0.0
2017-Sep-17 01:00N 47°12' W 001°34'0 0.0
2017-Sep-17 00:30N 47°12' W 001°34'0 0.0
2017-Sep-17 00:00N 47°12' W 001°34'0 0.0
2017-Sep-16 23:31N 47°12' W 001°34'0 0.0
2017-Sep-16 23:00N 47°12' W 001°34'0 0.0
2017-Sep-16 22:30N 47°12' W 001°34'0 0.0
2017-Sep-16 22:00N 47°12' W 001°34'0 0.0
2017-Sep-16 21:30N 47°12' W 001°34'0 0.0
2017-Sep-16 21:00N 47°12' W 001°34'0 0.0
2017-Sep-16 20:30N 47°12' W 001°34'0 0.0
2017-Sep-16 20:01N 47°12' W 001°34'0 0.0
2017-Sep-16 19:31N 47°12' W 001°34'0 0.0
2017-Sep-16 19:01N 47°12' W 001°34'0 0.0
2017-Sep-16 18:30N 47°12' W 001°34'0 0.0
2017-Sep-16 17:53N 47°12' W 001°34'0 0.2
2017-Sep-16 17:30N 47°13' W 001°34'2 4.6
2017-Sep-16 16:59N 47°13' W 001°31'2 3.7
2017-Sep-16 16:30N 47°12' W 001°33'1 2.0
2017-Sep-16 16:00N 47°12' W 001°34'0 1.0
2017-Sep-16 15:30N 47°12' W 001°34'3 5.1
2017-Sep-16 15:01N 47°12' W 001°38'3 6.8
2017-Sep-16 14:30N 47°12' W 001°43'3 6.9
2017-Sep-16 14:01N 47°13' W 001°48'3 6.7
2017-Sep-16 13:30N 47°15' W 001°51'3 6.6
2017-Sep-16 13:01N 47°17' W 001°55'4 7.3
2017-Sep-16 12:30N 47°18' W 002°01'4 7.6
2017-Sep-16 12:00N 47°18' W 002°06'3 5.9
2017-Sep-16 11:30N 47°17' W 002°10'2 1.8
2017-Sep-16 10:39N 47°16' W 002°12'0 0.6
2017-Sep-16 10:30N 47°16' W 002°12'0 0.0
2017-Sep-16 10:00N 47°16' W 002°12'0 0.0
2017-Sep-16 09:29N 47°16' W 002°12'0 0.0
2017-Sep-16 09:01N 47°16' W 002°12'0 0.0
2017-Sep-16 08:30N 47°16' W 002°12'0 0.0
2017-Sep-16 08:00N 47°16' W 002°12'0 0.0
2017-Sep-16 07:30N 47°16' W 002°12'0 0.0
2017-Sep-16 07:01N 47°16' W 002°12'0 0.0
2017-Sep-16 06:29N 47°16' W 002°12'0 0.0
2017-Sep-16 06:00N 47°16' W 002°12'0 0.0
2017-Sep-16 05:28N 47°16' W 002°12'0 0.0
2017-Sep-16 05:00N 47°16' W 002°12'0 0.0
2017-Sep-16 04:30N 47°16' W 002°12'0 0.0
2017-Sep-16 04:00N 47°16' W 002°12'0 0.0
2017-Sep-16 03:30N 47°16' W 002°12'0 0.0
2017-Sep-16 03:00N 47°16' W 002°12'0 0.0
2017-Sep-16 02:30N 47°16' W 002°12'0 0.0
2017-Sep-16 02:00N 47°16' W 002°12'0 0.0
2017-Sep-16 01:30N 47°16' W 002°12'0 0.0
2017-Sep-16 01:01N 47°16' W 002°12'0 0.0
2017-Sep-16 00:30N 47°16' W 002°12'0 0.0
2017-Sep-16 00:00N 47°16' W 002°12'0 0.0
2017-Sep-15 23:31N 47°16' W 002°12'0 0.0
2017-Sep-15 22:57N 47°16' W 002°12'0 0.0
2017-Sep-15 22:28N 47°16' W 002°12'0 0.2
2017-Sep-15 22:00N 47°16' W 002°12'1 1.4
2017-Sep-15 21:30N 47°17' W 002°11'3 6.8
2017-Sep-15 21:00N 47°18' W 002°07'3 6.4
2017-Sep-15 20:30N 47°18' W 002°02'3 6.5
2017-Sep-15 20:01N 47°17' W 001°57'4 7.3
2017-Sep-15 19:30N 47°16' W 001°52'5 9.0
2017-Sep-15 19:00N 47°13' W 001°48'510.5
2017-Sep-15 18:30N 47°12' W 001°40'4 8.1
2017-Sep-15 17:59N 47°12' W 001°34'0 0.0
2017-Sep-15 17:29N 47°12' W 001°34'0 0.0
2017-Sep-15 17:00N 47°12' W 001°34'0 0.0
2017-Sep-15 16:30N 47°12' W 001°34'0 0.0
2017-Sep-15 16:00N 47°12' W 001°34'0 0.0
2017-Sep-15 15:30N 47°12' W 001°34'0 0.0
2017-Sep-15 14:51N 47°12' W 001°34'0 0.0
2017-Sep-15 14:29N 47°12' W 001°34'0 0.0
2017-Sep-15 14:00N 47°12' W 001°34'0 0.0
2017-Sep-15 13:30N 47°12' W 001°34'0 0.0
2017-Sep-15 13:00N 47°12' W 001°34'0 0.0
2017-Sep-15 12:30N 47°12' W 001°34'0 0.0
2017-Sep-15 12:00N 47°12' W 001°34'0 0.0
2017-Sep-15 11:30N 47°12' W 001°34'0 0.0
2017-Sep-15 11:00N 47°12' W 001°34'0 0.0
2017-Sep-15 10:29N 47°12' W 001°34'0 0.0
2017-Sep-15 10:00N 47°12' W 001°34'0 0.0
2017-Sep-15 09:30N 47°12' W 001°34'0 0.0
2017-Sep-15 09:00N 47°12' W 001°34'0 0.0
2017-Sep-15 08:30N 47°12' W 001°34'0 0.0
2017-Sep-15 08:00N 47°12' W 001°34'0 0.0
2017-Sep-15 07:31N 47°12' W 001°34'0 0.0
2017-Sep-15 07:00N 47°12' W 001°34'0 0.0
2017-Sep-15 06:30N 47°12' W 001°34'0 0.0
2017-Sep-15 05:59N 47°12' W 001°34'0 0.0
2017-Sep-15 05:30N 47°12' W 001°34'0 0.0
2017-Sep-15 05:00N 47°12' W 001°34'0 0.0
2017-Sep-15 04:31N 47°12' W 001°34'0 0.0
2017-Sep-15 04:00N 47°12' W 001°34'0 0.0
2017-Sep-15 03:29N 47°12' W 001°34'0 0.0
2017-Sep-15 03:01N 47°12' W 001°34'0 0.0
2017-Sep-15 02:30N 47°12' W 001°34'0 0.0
2017-Sep-15 02:00N 47°12' W 001°34'0 0.0
2017-Sep-15 01:31N 47°12' W 001°34'0 0.0
2017-Sep-15 01:01N 47°12' W 001°34'0 0.0
2017-Sep-15 00:30N 47°12' W 001°34'0 0.0
2017-Sep-15 00:00N 47°12' W 001°34'0 0.0
2017-Sep-14 23:30N 47°12' W 001°34'0 0.0
2017-Sep-14 23:00N 47°12' W 001°34'0 0.0
2017-Sep-14 22:30N 47°12' W 001°34'0 0.0
2017-Sep-14 22:00N 47°12' W 001°34'0 0.0
2017-Sep-14 21:30N 47°12' W 001°34'0 0.0
2017-Sep-14 21:00N 47°12' W 001°34'0 0.0
2017-Sep-14 20:30N 47°12' W 001°34'0 0.2
2017-Sep-14 20:00N 47°12' W 001°34'3 6.1
2017-Sep-14 19:30N 47°12' W 001°38'1 2.3
2017-Sep-14 19:00N 47°12' W 001°40'2 4.5
2017-Sep-14 18:30N 47°12' W 001°37'2 4.1
2017-Sep-14 18:00N 47°12' W 001°34'0 0.0
2017-Sep-14 17:31N 47°12' W 001°34'0 0.0
2017-Sep-14 17:00N 47°12' W 001°34'0 0.0
2017-Sep-14 16:30N 47°12' W 001°34'0 0.0
2017-Sep-14 16:00N 47°12' W 001°34'1 1.1
2017-Sep-14 15:31N 47°12' W 001°33'3 5.0
2017-Sep-14 15:01N 47°13' W 001°30'8 0.2
2017-Sep-13 07:57N 47°18' W 001°21'2 3.8
2017-Sep-13 07:25N 47°17' W 001°23'2 3.8
2017-Sep-13 07:00N 47°16' W 001°25'2 3.9
2017-Sep-13 06:29N 47°15' W 001°27'2 4.2
2017-Sep-13 05:59N 47°13' W 001°30'2 4.1
2017-Sep-13 05:30N 47°13' W 001°32'1 2.2
2017-Sep-13 05:00N 47°13' W 001°34'0 0.0
2017-Sep-13 04:30N 47°13' W 001°34'0 0.0
2017-Sep-13 04:00N 47°13' W 001°34'0 0.0
2017-Sep-13 03:30N 47°13' W 001°34'0 0.0
2017-Sep-13 03:00N 47°13' W 001°34'0 0.0
2017-Sep-13 02:30N 47°13' W 001°34'0 0.0
2017-Sep-13 02:00N 47°13' W 001°34'0 0.0
2017-Sep-13 01:31N 47°13' W 001°34'0 0.0
2017-Sep-13 01:00N 47°13' W 001°34'0 0.0
2017-Sep-13 00:31N 47°13' W 001°34'0 0.0
2017-Sep-12 23:59N 47°13' W 001°34'0 0.0
2017-Sep-12 23:30N 47°13' W 001°34'0 0.0
2017-Sep-12 23:00N 47°13' W 001°34'0 0.0
2017-Sep-12 22:30N 47°13' W 001°34'0 0.0
2017-Sep-12 22:00N 47°13' W 001°34'0 0.0
2017-Sep-12 21:30N 47°13' W 001°34'0 0.0
2017-Sep-12 21:00N 47°13' W 001°34'0 0.0
2017-Sep-12 20:30N 47°13' W 001°34'0 0.0
2017-Sep-12 20:00N 47°13' W 001°34'0 0.0
2017-Sep-12 19:31N 47°13' W 001°34'0 0.0
2017-Sep-12 19:01N 47°13' W 001°34'0 0.0
2017-Sep-12 18:31N 47°13' W 001°34'0 0.0
2017-Sep-12 18:01N 47°13' W 001°34'0 0.0
2017-Sep-12 17:31N 47°13' W 001°34'0 0.0
2017-Sep-12 16:58N 47°13' W 001°34'0 0.0
2017-Sep-12 16:17N 47°13' W 001°34'0 0.0
2017-Sep-12 16:00N 47°13' W 001°34'0 0.0
2017-Sep-12 15:26N 47°13' W 001°34'0 0.0
2017-Sep-12 14:52N 47°13' W 001°34'0 0.0
2017-Sep-12 14:29N 47°13' W 001°34'0 0.0
2017-Sep-12 13:55N 47°13' W 001°34'0 0.0
2017-Sep-12 12:48N 47°13' W 001°34'0 0.0
2017-Sep-12 12:30N 47°13' W 001°34'2 0.5
2017-Sep-12 09:13N 47°12' W 001°36'2 4.5
2017-Sep-12 08:47N 47°11' W 001°39'1 5.2
2017-Sep-12 08:30N 47°12' W 001°41'3 5.7
2017-Sep-12 08:00N 47°12' W 001°45'3 6.4
2017-Sep-12 07:30N 47°13' W 001°49'4 7.6
2017-Sep-12 07:00N 47°16' W 001°53'4 8.4
2017-Sep-12 06:31N 47°17' W 001°59'2 3.9
2017-Sep-12 06:01N 47°17' W 002°02'0 0.0
2017-Sep-12 05:29N 47°17' W 002°02'0 0.0
2017-Sep-12 05:01N 47°17' W 002°02'0 0.0
2017-Sep-12 04:30N 47°17' W 002°02'0 0.0
2017-Sep-12 04:00N 47°17' W 002°02'0 0.0
2017-Sep-12 03:30N 47°17' W 002°02'0 0.0
2017-Sep-12 03:00N 47°17' W 002°02'0 0.0
2017-Sep-12 02:30N 47°17' W 002°02'  

Dump ship's entire track history